Time;durP1;ratioP1;P1;durP2;ratioP2;P2;SDS_P1;SDS_P2;PMS_P1;PMS_P2;Temp;Humidity;BMP_temperature;BMP_pressure;BME280_temperature;BME280_humidity;BME280_pressure;Samples;Min_cycle;Max_cycle;Signal;HPM_P1;HPM_P2
2022/02/13 00:01:20;;;;;;;;;;;;;;;-144.99;75.26;52717.16;5071959;28;19999;-68
2022/02/13 00:03:47;;;;;;;;;;;;;;;-144.99;75.22;52717.16;5071651;28;20371;-68
2022/02/13 00:06:13;;;;;;;;;;;;;;;-144.99;74.98;52684.53;5072075;28;19984;-68
2022/02/13 00:08:39;;;;;;;;;;;;;;;-144.99;74.35;52690.66;5069879;28;19972;-68
2022/02/13 00:11:06;;;;;;;;;;;;;;;-144.99;74.34;52706.97;5054789;28;19988;-68
2022/02/13 00:13:34;;;;;;;;;;;;;;;-144.99;73.96;52686.59;5071666;28;20002;-68
2022/02/13 00:16:00;;;;;;;;;;;;;;;-144.99;74.37;52709.00;5057957;28;19980;-68
2022/02/13 00:18:26;;;;;;;;;;;;;;;-144.99;74.23;52639.69;5071287;28;19981;-68
2022/02/13 00:20:53;;;;;;;;;;;;;;;-144.99;74.25;52668.22;5071117;28;20348;-68
2022/02/13 00:23:19;;;;;;;;;;;;;;;-144.99;74.20;52725.31;4711936;28;10000400;-68
2022/02/13 00:25:46;;;;;;;;;;;;;;;-144.99;73.74;52725.31;5056009;28;19983;-68
2022/02/13 00:28:13;;;;;;;;;;;;;;;-144.99;74.87;52692.69;5072248;28;19985;-66
2022/02/13 00:30:46;;;;;;;;;;;;;;;-144.99;74.86;52694.72;5080065;28;19976;-67
2022/02/13 00:33:12;;;;;;;;;;;;;;;-144.99;74.96;52658.03;5080816;28;20023;-66
2022/02/13 00:35:39;;;;;;;;;;;;;;;-144.99;75.17;52731.44;5089611;28;19984;-68
2022/02/13 00:38:07;;;;;;;;;;;;;;;-144.99;75.43;52684.53;5083957;28;19982;-68
2022/02/13 00:40:33;;;;;;;;;;;;;;;-144.99;75.44;52700.84;5091142;28;20054;-66
2022/02/13 00:42:59;;;;;;;;;;;;;;;-144.99;76.02;52704.94;5091118;28;20007;-64
2022/02/13 00:45:26;;;;;;;;;;;;;;;-144.99;76.40;52692.69;5064265;28;19988;-63
2022/02/13 00:47:53;;;;;;;;;;;;;;;-144.99;76.08;52688.63;5073780;28;19981;-64
2022/02/13 00:50:20;;;;;;;;;;;;;;;-144.99;76.09;52692.69;5065575;28;19988;-64
2022/02/13 00:52:46;;;;;;;;;;;;;;;-144.99;76.66;52684.53;5052791;28;20458;-64
2022/02/13 00:55:13;;;;;;;;;;;;;;;-144.99;76.66;52684.53;5053144;28;20252;-64
2022/02/13 00:57:39;;;;;;;;;;;;;;;-144.99;77.08;52680.47;5052985;28;19984;-64
2022/02/13 01:00:06;;;;;;;;;;;;;;;-144.99;77.12;52688.63;5065858;28;19995;-64
2022/02/13 01:02:32;;;;;;;;;;;;;;;-144.99;77.23;52696.78;5065402;28;20027;-64
2022/02/13 01:05:00;;;;;;;;;;;;;;;-144.99;77.78;52700.84;5072183;28;19992;-63
2022/02/13 01:07:26;;;;;;;;;;;;;;;-144.99;77.60;52706.97;5072564;28;19980;-63
2022/02/13 01:09:53;;;;;;;;;;;;;;;-144.99;77.23;52704.94;5068609;28;19973;-63
2022/02/13 01:12:19;;;;;;;;;;;;;;;-144.99;76.95;52692.69;5072588;28;19977;-63
2022/02/13 01:14:46;;;;;;;;;;;;;;;-144.99;77.51;52709.00;5058839;28;20444;-64
2022/02/13 01:17:12;;;;;;;;;;;;;;;-144.99;77.25;52704.94;5076363;28;20028;-64
2022/02/13 01:19:38;;;;;;;;;;;;;;;-144.99;77.23;52680.47;5068914;28;20040;-65
2022/02/13 01:22:07;;;;;;;;;;;;;;;-144.99;77.75;52704.94;5085882;28;20337;-64
2022/02/13 01:24:34;;;;;;;;;;;;;;;-144.99;77.41;52704.94;5089259;28;20006;-65
2022/02/13 01:27:00;;;;;;;;;;;;;;;-144.99;77.31;52700.84;5089225;28;19981;-65
2022/02/13 01:29:27;;;;;;;;;;;;;;;-144.99;77.48;52700.84;5087899;28;20197;-63
2022/02/13 01:31:53;;;;;;;;;;;;;;;-144.99;77.77;52700.84;5088509;28;20047;-63
2022/02/13 01:34:20;;;;;;;;;;;;;;;-144.99;77.48;52717.16;5089025;28;20159;-63
2022/02/13 01:36:46;;;;;;;;;;;;;;;-144.99;77.63;52692.69;5087432;28;20079;-63
2022/02/13 01:39:14;;;;;;;;;;;;;;;-144.99;77.69;52709.00;5072759;28;19981;-67
2022/02/13 01:41:40;;;;;;;;;;;;;;;-144.99;77.58;52709.00;5070813;28;19999;-66
2022/02/13 01:44:21;;;;;;;;;;;;;;;-144.99;77.51;52696.78;5084325;28;19997;-65
2022/02/13 01:46:48;;;;;;;;;;;;;;;-144.99;77.07;52688.63;5084649;28;20440;-65
2022/02/13 01:49:14;;;;;;;;;;;;;;;-144.99;77.22;52733.47;5084294;28;19973;-66
2022/02/13 01:51:40;;;;;;;;;;;;;;;-144.99;77.17;52694.72;5077577;28;19973;-65
2022/02/13 01:54:07;;;;;;;;;;;;;;;-144.99;76.66;52696.78;5082397;28;19996;-66
2022/02/13 01:56:34;;;;;;;;;;;;;;;-144.99;76.96;52676.38;5080608;28;19980;-68
2022/02/13 01:59:01;;;;;;;;;;;;;;;-144.99;76.93;52684.53;5081471;28;20122;-66
2022/02/13 02:01:27;;;;;;;;;;;;;;;-144.99;76.09;52686.59;5076005;28;19993;-68
2022/02/13 02:03:54;;;;;;;;;;;;;;;-144.99;76.31;52684.53;5076401;28;19996;-65
2022/02/13 02:06:20;;;;;;;;;;;;;;;-144.99;76.19;52713.09;5071386;28;20039;-65
2022/02/13 02:08:46;;;;;;;;;;;;;;;-144.99;76.41;52676.38;5058780;28;19981;-65
2022/02/13 02:11:13;;;;;;;;;;;;;;;-144.99;76.30;52721.22;5076402;28;20362;-66
2022/02/13 02:13:41;;;;;;;;;;;;;;;-144.99;76.82;52747.72;5072244;28;20046;-65
2022/02/13 02:16:08;;;;;;;;;;;;;;;-144.99;76.88;52635.63;5057496;28;19974;-66
2022/02/13 02:18:34;;;;;;;;;;;;;;;-144.99;76.98;52688.63;5052400;28;20396;-67
2022/02/13 02:21:03;;;;;;;;;;;;;;;-144.99;76.34;52656.00;5052827;28;20003;-66
2022/02/13 02:23:30;;;;;;;;;;;;;;;-144.99;76.40;52709.00;5072055;28;20049;-66
2022/02/13 02:25:57;;;;;;;;;;;;;;;-144.99;76.61;52668.22;5078052;28;19975;-68
2022/02/13 02:28:23;;;;;;;;;;;;;;;-144.99;76.84;52733.47;5077502;28;19981;-67
2022/02/13 02:30:49;;;;;;;;;;;;;;;-144.99;76.36;52660.09;5088240;28;19987;-64
2022/02/13 02:33:16;;;;;;;;;;;;;;;-144.99;76.50;52639.69;5080455;28;20006;-64
2022/02/13 02:35:42;;;;;;;;;;;;;;;-144.99;76.41;52662.13;5058244;28;20000;-64
2022/02/13 02:38:09;;;;;;;;;;;;;;;-144.99;76.34;52680.47;5068838;28;19978;-64
2022/02/13 02:40:36;;;;;;;;;;;;;;;-144.99;76.82;52670.28;5071657;28;19992;-64
2022/02/13 02:43:03;;;;;;;;;;;;;;;-144.99;76.73;52664.16;5071615;28;20123;-64
2022/02/13 02:45:29;;;;;;;;;;;;;;;-144.99;76.60;52696.78;5071555;28;19992;-64
2022/02/13 02:47:55;;;;;;;;;;;;;;;-144.99;76.81;52688.63;5070851;28;19983;-64
2022/02/13 02:50:22;;;;;;;;;;;;;;;-144.99;76.97;52709.00;5051465;28;20008;-64
2022/02/13 02:52:48;;;;;;;;;;;;;;;-144.99;77.06;52660.09;5051541;28;19996;-64
2022/02/13 02:55:15;;;;;;;;;;;;;;;-144.99;76.85;52709.00;5059679;28;20081;-64
2022/02/13 02:57:42;;;;;;;;;;;;;;;-144.99;76.89;52651.94;5071055;28;19977;-64
2022/02/13 03:00:10;;;;;;;;;;;;;;;-144.99;76.60;52647.84;5071379;28;20445;-64
2022/02/13 03:02:37;;;;;;;;;;;;;;;-144.99;77.28;52694.72;5056669;28;20452;-65
2022/02/13 03:05:04;;;;;;;;;;;;;;;-144.99;77.28;52672.31;5071310;28;19977;-64
2022/02/13 03:07:30;;;;;;;;;;;;;;;-144.99;77.63;52668.22;5066088;28;19981;-64
2022/02/13 03:09:57;;;;;;;;;;;;;;;-144.99;77.78;52696.78;5070918;28;19981;-64
2022/02/13 03:12:23;;;;;;;;;;;;;;;-144.99;77.28;52696.78;5069527;28;20058;-64
2022/02/13 03:14:51;;;;;;;;;;;;;;;-144.99;77.90;52688.63;5072583;28;19977;-64
2022/02/13 03:17:17;;;;;;;;;;;;;;;-144.99;78.42;52692.69;5074897;28;19981;-65
2022/02/13 03:19:43;;;;;;;;;;;;;;;-144.99;78.29;52688.63;5074836;28;19981;-65
2022/02/13 03:22:10;;;;;;;;;;;;;;;-144.99;78.51;52696.78;5060903;28;20000;-65
2022/02/13 03:24:36;;;;;;;;;;;;;;;-144.99;78.79;52649.88;5074738;28;20377;-64
2022/02/13 03:27:03;;;;;;;;;;;;;;;-144.99;78.88;52692.69;5073261;28;19983;-64
2022/02/13 03:29:29;;;;;;;;;;;;;;;-144.99;78.46;52668.22;5063388;28;20380;-64
2022/02/13 03:31:57;;;;;;;;;;;;;;;-144.99;78.80;52647.84;5074377;28;20026;-64
2022/02/13 03:34:23;;;;;;;;;;;;;;;-144.99;78.06;52694.72;5073669;28;20088;-64
2022/02/13 03:36:51;;;;;;;;;;;;;;;-144.99;77.96;52745.69;5072387;28;19983;-64
2022/02/13 03:39:18;;;;;;;;;;;;;;;-144.99;77.85;52684.53;5074749;28;19981;-64
2022/02/13 03:41:44;;;;;;;;;;;;;;;-144.99;77.87;52706.97;5073686;28;20046;-64
2022/02/13 03:44:11;;;;;;;;;;;;;;;-144.99;77.86;52684.53;5074184;28;20044;-64
2022/02/13 03:46:37;;;;;;;;;;;;;;;-144.99;78.00;52668.22;5073848;28;19984;-63
2022/02/13 03:49:07;;;;;;;;;;;;;;;-144.99;77.99;52684.53;5072749;28;19981;-63
2022/02/13 03:51:33;;;;;;;;;;;;;;;-144.99;77.84;52700.84;5070344;28;20022;-63
2022/02/13 03:54:00;;;;;;;;;;;;;;;-144.99;77.28;52664.16;5064176;28;20526;-65
2022/02/13 03:56:26;;;;;;;;;;;;;;;-144.99;77.96;52680.47;5071459;28;19978;-65
2022/02/13 03:58:52;;;;;;;;;;;;;;;-144.99;78.12;52649.88;5072264;28;19983;-66
2022/02/13 04:01:19;;;;;;;;;;;;;;;-144.99;78.54;52653.97;5068739;28;20031;-66
2022/02/13 04:03:45;;;;;;;;;;;;;;;-144.99;78.91;52692.69;5059511;28;20003;-66
2022/02/13 04:06:13;;;;;;;;;;;;;;;-144.99;78.56;52676.38;5071252;28;19979;-66
2022/02/13 04:08:39;;;;;;;;;;;;;;;-144.99;78.76;52672.31;5072070;28;19980;-66
2022/02/13 04:11:06;;;;;;;;;;;;;;;-144.99;78.78;52680.47;5070214;28;20013;-67
2022/02/13 04:13:32;;;;;;;;;;;;;;;-144.99;78.97;52721.22;5063516;28;20535;-66
2022/02/13 04:15:59;;;;;;;;;;;;;;;-144.99;79.62;52664.16;5069128;28;19981;-67
2022/02/13 04:18:25;;;;;;;;;;;;;;;-144.99;80.49;52678.44;5063011;28;20027;-67
2022/02/13 04:20:52;;;;;;;;;;;;;;;-144.99;80.38;52688.63;5053142;28;20007;-67
2022/02/13 04:23:19;;;;;;;;;;;;;;;-144.99;79.95;52670.28;5061149;28;20055;-67
2022/02/13 04:25:46;;;;;;;;;;;;;;;-144.99;79.85;52725.31;5086485;28;19968;-68
2022/02/13 04:28:12;;;;;;;;;;;;;;;-144.99;79.37;52686.59;5094243;28;19984;-68
2022/02/13 04:30:38;;;;;;;;;;;;;;;-144.99;79.76;52688.63;5090818;28;20039;-66
2022/02/13 04:33:05;;;;;;;;;;;;;;;-144.99;79.30;52651.94;5073849;28;20003;-66
2022/02/13 04:35:33;;;;;;;;;;;;;;;-144.99;79.58;52692.69;5069189;28;20071;-64
2022/02/13 04:37:59;;;;;;;;;;;;;;;-144.99;80.10;52684.53;5069422;28;20060;-64
2022/02/13 04:40:27;;;;;;;;;;;;;;;-144.99;79.66;52639.69;5073756;28;19984;-64
2022/02/13 04:42:53;;;;;;;;;;;;;;;-144.99;80.11;52651.94;5074069;28;20448;-64
2022/02/13 04:45:20;;;;;;;;;;;;;;;-144.99;80.08;52680.47;5054731;28;19980;-64
2022/02/13 04:47:48;;;;;;;;;;;;;;;-144.99;79.78;52688.63;5067856;28;19980;-66
2022/02/13 04:50:20;;;;;;;;;;;;;;;-144.99;79.64;52709.00;5094604;28;19976;-65
2022/02/13 04:52:47;;;;;;;;;;;;;;;-144.99;79.45;52676.38;5093894;28;19995;-65
2022/02/13 04:55:14;;;;;;;;;;;;;;;-144.99;79.42;52690.66;5091080;28;19979;-65
2022/02/13 04:57:42;;;;;;;;;;;;;;;-144.99;79.72;52706.97;5059656;28;20080;-66
2022/02/13 05:00:09;;;;;;;;;;;;;;;-144.99;79.68;52709.00;5071882;28;19980;-65
2022/02/13 05:02:35;;;;;;;;;;;;;;;-144.99;79.10;52713.09;5077031;22;19996;-59
2022/02/13 05:05:02;;;;;;;;;;;;;;;-144.99;79.32;52704.94;5069464;28;19984;-60
2022/02/13 05:07:28;;;;;;;;;;;;;;;-144.99;79.39;52676.38;5069982;28;20444;-60
2022/02/13 05:09:54;;;;;;;;;;;;;;;-144.99;78.59;52709.00;5058102;28;19964;-60
2022/02/13 05:12:21;;;;;;;;;;;;;;;-144.99;78.75;52647.84;5062715;28;19976;-59
2022/02/13 05:14:49;;;;;;;;;;;;;;;-144.99;78.59;52713.09;5069150;28;19996;-59
2022/02/13 05:17:15;;;;;;;;;;;;;;;-144.99;78.24;52694.72;5069663;28;20472;-59
2022/02/13 05:19:41;;;;;;;;;;;;;;;-144.99;78.41;52702.88;5062004;28;19975;-59
2022/02/13 05:22:08;;;;;;;;;;;;;;;-144.99;78.72;52682.50;5062445;28;20062;-59
2022/02/13 05:24:36;;;;;;;;;;;;;;;-144.99;78.49;52651.94;5069099;28;20003;-59
2022/02/13 05:27:04;;;;;;;;;;;;;;;-144.99;78.29;52700.84;5068814;28;19981;-59
2022/02/13 05:29:30;;;;;;;;;;;;;;;-144.99;77.87;52676.38;5066058;28;19972;-59
2022/02/13 05:31:58;;;;;;;;;;;;;;;-144.99;78.08;52719.19;5068916;28;19981;-59
2022/02/13 05:34:24;;;;;;;;;;;;;;;-144.99;78.08;52688.63;5068712;28;20037;-57
2022/02/13 05:36:50;;;;;;;;;;;;;;;-144.99;77.93;52670.28;5067820;28;19992;-57
2022/02/13 05:39:17;;;;;;;;;;;;;;;-144.99;76.96;52709.00;5062017;28;19975;-57
2022/02/13 05:41:44;;;;;;;;;;;;;;;-144.99;77.58;52664.16;5068824;28;20000;-58
2022/02/13 05:44:10;;;;;;;;;;;;;;;-144.99;77.46;52692.69;5068818;28;19960;-58
2022/02/13 05:46:36;;;;;;;;;;;;;;;-144.99;77.76;52704.94;5068519;28;20097;-58
2022/02/13 05:49:04;;;;;;;;;;;;;;;-144.99;77.67;52684.53;5063722;28;19981;-58
2022/02/13 05:51:31;;;;;;;;;;;;;;;-144.99;77.72;52668.22;5064850;28;19977;-58
2022/02/13 05:53:57;;;;;;;;;;;;;;;-144.99;77.58;52725.31;5061978;28;19989;-58
2022/02/13 05:56:25;;;;;;;;;;;;;;;-144.99;77.20;52684.53;5068089;28;20479;-59
2022/02/13 05:58:52;;;;;;;;;;;;;;;-144.99;77.09;52658.03;5068460;28;19976;-59
2022/02/13 06:01:19;;;;;;;;;;;;;;;-144.99;76.80;52721.22;5065078;28;20034;-61
2022/02/13 06:03:45;;;;;;;;;;;;;;;-144.99;76.96;52702.88;5062375;28;20357;-61
2022/02/13 06:06:13;;;;;;;;;;;;;;;-144.99;76.77;52678.44;5063835;28;19980;-62
2022/02/13 06:08:39;;;;;;;;;;;;;;;-144.99;77.01;52713.09;5068811;28;20412;-61
2022/02/13 06:11:06;;;;;;;;;;;;;;;-144.99;76.80;52680.47;5060246;28;19954;-62
2022/02/13 06:13:32;;;;;;;;;;;;;;;-144.99;76.95;52692.69;5068403;28;19996;-61
2022/02/13 06:16:01;;;;;;;;;;;;;;;-144.99;76.48;52668.22;5068356;28;19980;-62
2022/02/13 06:18:27;;;;;;;;;;;;;;;-144.99;76.50;52700.84;5068534;28;19983;-60
2022/02/13 06:20:54;;;;;;;;;;;;;;;-144.99;75.74;52725.31;5067753;28;19992;-60
2022/02/13 06:23:21;;;;;;;;;;;;;;;-144.99;76.18;52713.09;5061114;28;20381;-60
2022/02/13 06:25:48;;;;;;;;;;;;;;;-144.99;76.21;52680.47;5055302;28;19979;-60
2022/02/13 06:28:14;;;;;;;;;;;;;;;-144.99;76.27;52709.00;5068672;28;19986;-60
2022/02/13 06:30:41;;;;;;;;;;;;;;;-144.99;75.99;52684.53;5056994;28;19976;-60
2022/02/13 06:33:07;;;;;;;;;;;;;;;-144.99;76.08;52721.22;5068792;28;19997;-60
2022/02/13 06:35:34;;;;;;;;;;;;;;;-144.99;76.18;52696.78;5067758;28;19981;-60
2022/02/13 06:38:01;;;;;;;;;;;;;;;-144.99;75.91;52682.50;5060799;28;19980;-60
2022/02/13 06:40:29;;;;;;;;;;;;;;;-144.99;76.38;52676.38;5070958;28;20329;-60
2022/02/13 06:42:55;;;;;;;;;;;;;;;-144.99;76.04;52700.84;5072149;28;20404;-58
2022/02/13 06:45:22;;;;;;;;;;;;;;;-144.99;76.45;52670.28;5072086;28;20428;-60
2022/02/13 06:47:48;;;;;;;;;;;;;;;-144.99;76.62;52670.28;5072343;28;20433;-60
2022/02/13 06:50:14;;;;;;;;;;;;;;;-144.99;76.08;52680.47;5071933;28;20027;-60
2022/02/13 06:52:41;;;;;;;;;;;;;;;-144.99;75.98;52684.53;5072413;28;20079;-60
2022/02/13 06:55:09;;;;;;;;;;;;;;;-144.99;76.15;52666.19;5058499;28;20050;-60
2022/02/13 06:57:42;;;;;;;;;;;;;;;-144.99;75.79;52676.38;5072638;28;20022;-58
2022/02/13 07:00:10;;;;;;;;;;;;;;;-144.99;75.69;52700.84;5071735;28;19977;-58
2022/02/13 07:02:36;;;;;;;;;;;;;;;-144.99;75.47;52649.88;5071931;28;20093;-58
2022/02/13 07:05:02;;;;;;;;;;;;;;;-144.99;74.96;52668.22;5071441;28;19979;-59
2022/02/13 07:07:29;;;;;;;;;;;;;;;-144.99;74.70;52692.69;5071911;28;20052;-59
2022/02/13 07:09:55;;;;;;;;;;;;;;;-144.99;74.72;52684.53;5071772;28;19953;-59
2022/02/13 07:12:21;;;;;;;;;;;;;;;-144.99;74.58;52688.63;5071631;28;19981;-59
2022/02/13 07:14:49;;;;;;;;;;;;;;;-144.99;73.85;52704.94;5057716;28;19997;-59
2022/02/13 07:17:16;;;;;;;;;;;;;;;-144.99;73.42;52688.63;5071697;28;19980;-59
2022/02/13 07:19:42;;;;;;;;;;;;;;;-144.99;73.11;52702.88;5071948;28;19989;-59
2022/02/13 07:22:08;;;;;;;;;;;;;;;-144.99;72.90;52709.00;5071751;28;19992;-59
2022/02/13 07:24:37;;;;;;;;;;;;;;;-144.99;72.35;52684.53;5072188;28;20003;-59
2022/02/13 07:27:04;;;;;;;;;;;;;;;-144.99;72.44;52694.72;5071909;28;20034;-59
2022/02/13 07:29:30;;;;;;;;;;;;;;;-144.99;72.17;52680.47;5064791;28;20128;-59
2022/02/13 07:31:58;;;;;;;;;;;;;;;-144.99;71.93;52680.47;5062544;28;19981;-59
2022/02/13 07:34:24;;;;;;;;;;;;;;;-144.99;71.68;52676.38;5067167;28;20409;-59
2022/02/13 07:36:54;;;;;;;;;;;;;;;-144.99;71.35;52713.09;5066075;28;19975;-59
2022/02/13 07:39:21;;;;;;;;;;;;;;;-144.99;70.88;52696.78;5069142;28;20374;-59
2022/02/13 07:41:48;;;;;;;;;;;;;;;-144.99;70.33;52656.00;5066965;28;19976;-59
2022/02/13 07:44:14;;;;;;;;;;;;;;;-144.99;70.03;52635.63;5064052;28;19987;-56
2022/02/13 07:46:41;;;;;;;;;;;;;;;-144.99;69.55;52690.66;5066107;28;19979;-62
2022/02/13 07:49:08;;;;;;;;;;;;;;;-144.99;69.14;52664.16;5060095;28;19985;-57
2022/02/13 07:51:36;;;;;;;;;;;;;;;-144.99;68.96;52668.22;5058401;28;19976;-58
2022/02/13 07:54:02;;;;;;;;;;;;;;;-144.99;68.53;52664.16;5065082;28;19993;-57
2022/02/13 07:56:29;;;;;;;;;;;;;;;-144.99;68.22;52696.78;5056613;28;19979;-57
2022/02/13 07:58:56;;;;;;;;;;;;;;;-144.99;68.24;52680.47;5056169;28;19972;-57
2022/02/13 08:01:22;;;;;;;;;;;;;;;-144.99;67.78;52688.63;5059548;28;19982;-61
2022/02/13 08:03:49;;;;;;;;;;;;;;;-144.99;67.50;52643.78;5059672;28;20003;-61
2022/02/13 08:06:18;;;;;;;;;;;;;;;-144.99;67.63;52639.69;5067687;28;19972;-60
2022/02/13 08:08:45;;;;;;;;;;;;;;;-144.99;66.70;52615.25;5058067;28;19979;-60
2022/02/13 08:11:12;;;;;;;;;;;;;;;-144.99;66.25;52676.38;5066265;28;20002;-60
2022/02/13 08:13:38;;;;;;;;;;;;;;;-144.99;66.13;52643.78;5066779;28;20344;-59
2022/02/13 08:16:05;;;;;;;;;;;;;;;-144.99;66.85;52635.63;5058363;28;19975;-59
2022/02/13 08:18:31;;;;;;;;;;;;;;;-144.99;65.50;52631.53;5062558;28;19982;-60
2022/02/13 08:20:58;;;;;;;;;;;;;;;-144.99;66.75;52623.38;5066231;28;20080;-61
2022/02/13 08:23:26;;;;;;;;;;;;;;;-144.99;64.82;52664.16;5064040;28;19995;-61
2022/02/13 08:25:53;;;;;;;;;;;;;;;-144.99;62.73;52660.09;5065761;28;19996;-61
2022/02/13 08:28:20;;;;;;;;;;;;;;;-144.99;61.67;52607.09;5063689;28;19976;-61
2022/02/13 08:30:46;;;;;;;;;;;;;;;-144.99;61.62;52643.78;5067111;28;19972;-61
2022/02/13 08:33:13;;;;;;;;;;;;;;;-144.99;62.42;52615.25;5066038;28;19991;-61
2022/02/13 08:35:39;;;;;;;;;;;;;;;-144.99;61.13;52639.69;5065817;28;19975;-61
2022/02/13 08:38:06;;;;;;;;;;;;;;;-144.99;60.32;52660.09;5055019;28;20006;-61
2022/02/13 08:40:34;;;;;;;;;;;;;;;-144.99;59.70;52668.22;5058405;28;19972;-61
2022/02/13 08:43:01;;;;;;;;;;;;;;;-144.99;59.12;52643.78;5059443;28;19991;-61
2022/02/13 08:45:28;;;;;;;;;;;;;;;-144.99;59.45;52645.81;5052788;28;19979;-60
2022/02/13 08:47:56;;;;;;;;;;;;;;;-144.99;58.22;52668.22;5064678;28;20449;-60
2022/02/13 08:50:22;;;;;;;;;;;;;;;-144.99;58.52;52639.69;5060768;28;19975;-60
2022/02/13 08:52:48;;;;;;;;;;;;;;;-144.99;58.02;52631.53;5065082;28;20009;-61
2022/02/13 08:55:14;;;;;;;;;;;;;;;-144.99;57.28;52633.59;5066884;28;19972;-61
2022/02/13 08:57:43;;;;;;;;;;;;;;;-144.99;57.35;52627.47;5068396;28;20001;-60
2022/02/13 09:00:09;;;;;;;;;;;;;;;-144.99;56.74;52627.47;5059916;28;20480;-59
2022/02/13 09:02:36;;;;;;;;;;;;;;;-144.99;56.42;52635.63;5063164;28;19997;-59
2022/02/13 09:05:04;;;;;;;;;;;;;;;-144.99;56.26;52658.03;5065984;28;19971;-60
2022/02/13 09:07:31;;;;;;;;;;;;;;;-144.99;56.67;52680.47;5061489;28;20026;-60
2022/02/13 09:09:57;;;;;;;;;;;;;;;-144.99;56.69;52647.84;5056279;28;19983;-60
2022/02/13 09:12:25;;;;;;;;;;;;;;;-144.99;55.64;52643.78;5062279;28;19978;-60
2022/02/13 09:14:52;;;;;;;;;;;;;;;-144.99;55.28;52631.53;5054531;28;20448;-60
2022/02/13 09:17:19;;;;;;;;;;;;;;;-144.99;54.74;52647.84;5058606;28;20102;-60
2022/02/13 09:19:45;;;;;;;;;;;;;;;-144.99;54.58;52627.47;5061008;28;19973;-61
2022/02/13 09:22:12;;;;;;;;;;;;;;;-144.99;53.94;52643.78;5062492;28;19970;-60
2022/02/13 09:24:38;;;;;;;;;;;;;;;-144.99;53.73;52629.50;5062758;28;19992;-60
2022/02/13 09:27:05;;;;;;;;;;;;;;;-144.99;54.05;52625.44;5064838;28;20070;-60
2022/02/13 09:29:31;;;;;;;;;;;;;;;-144.99;53.47;52645.81;5059165;28;19975;-61
2022/02/13 09:31:59;;;;;;;;;;;;;;;-144.99;53.63;52603.00;5064573;28;20398;-59
2022/02/13 09:34:28;;;;;;;;;;;;;;;-144.99;53.60;52639.69;5063946;28;19999;-59
2022/02/13 09:36:55;;;;;;;;;;;;;;;-144.99;53.20;52643.78;5061259;28;20453;-60
2022/02/13 09:39:21;;;;;;;;;;;;;;;-144.99;52.65;52619.31;5067949;28;19981;-60
2022/02/13 09:41:48;;;;;;;;;;;;;;;-144.99;52.91;52631.53;5065703;28;20226;-62
2022/02/13 09:44:14;;;;;;;;;;;;;;;-144.99;52.41;52651.94;5061301;28;20013;-60
2022/02/13 09:46:41;;;;;;;;;;;;;;;-144.99;51.97;52639.69;5065158;28;19970;-60
2022/02/13 09:49:11;;;;;;;;;;;;;;;-144.99;52.30;52623.38;5059470;28;20339;-60
2022/02/13 09:51:37;;;;;;;;;;;;;;;-144.99;52.68;52605.03;5060895;28;19977;-60
2022/02/13 09:54:05;;;;;;;;;;;;;;;-144.99;52.49;52615.25;5063318;28;20463;-60
2022/02/13 09:56:31;;;;;;;;;;;;;;;-144.99;51.70;52656.00;5063131;28;19977;-65
2022/02/13 09:58:58;;;;;;;;;;;;;;;-144.99;52.28;52635.63;5062246;28;19972;-65
2022/02/13 10:01:34;;;;;;;;;;;;;;;-144.99;51.76;52623.38;5057088;28;19980;-65
2022/02/13 10:04:00;;;;;;;;;;;;;;;-144.99;51.06;52603.00;5057210;28;20000;-64
2022/02/13 10:06:28;;;;;;;;;;;;;;;-144.99;50.52;52603.00;5067024;28;19963;-64
2022/02/13 10:08:55;;;;;;;;;;;;;;;-144.99;50.77;52611.16;5056661;28;19965;-67
2022/02/13 10:11:24;;;;;;;;;;;;;;;-144.99;49.82;52594.84;5064672;28;19972;-65
2022/02/13 10:13:52;;;;;;;;;;;;;;;-144.99;49.54;52590.78;5053520;28;19987;-65
2022/02/13 10:16:19;;;;;;;;;;;;;;;-144.99;49.37;52582.63;5056824;28;19977;-65
2022/02/13 10:18:47;;;;;;;;;;;;;;;-144.99;48.97;52619.31;5059084;28;20153;-65
2022/02/13 10:21:28;;;;;;;;;;;;;;;-144.99;49.31;52598.94;5055878;28;19980;-66
2022/02/13 10:24:11;;;;;;;;;;;;;;;-144.99;48.93;52594.84;5054624;28;20019;-66
2022/02/13 10:26:37;;;;;;;;;;;;;;;-144.99;48.66;52560.19;5061621;28;20318;-65
2022/02/13 10:29:06;;;;;;;;;;;;;;;-144.99;48.47;52586.69;5059158;28;20087;-65
2022/02/13 10:31:32;;;;;;;;;;;;;;;-144.99;47.73;52582.63;5061002;28;19955;-64
2022/02/13 10:33:59;;;;;;;;;;;;;;;-144.99;47.62;52541.84;5058579;28;20458;-64
2022/02/13 10:36:26;;;;;;;;;;;;;;;-144.99;47.08;52578.53;5063445;28;19997;-65
2022/02/13 10:38:52;;;;;;;;;;;;;;;-144.99;46.44;52529.63;5064942;28;19969;-65
2022/02/13 10:41:21;;;;;;;;;;;;;;;-144.99;46.21;52515.34;5060999;28;19989;-66
2022/02/13 10:43:55;;;;;;;;;;;;;;;-144.99;45.62;52497.00;5064197;28;20009;-65
2022/02/13 10:46:23;;;;;;;;;;;;;;;-144.99;45.66;52529.63;5063736;28;19982;-65
2022/02/13 10:48:49;;;;;;;;;;;;;;;-144.99;44.52;52515.34;5065373;28;19973;-65
2022/02/13 10:51:16;;;;;;;;;;;;;;;-144.99;44.94;52545.94;5055199;28;20049;-66
2022/02/13 10:53:43;;;;;;;;;;;;;;;-144.99;44.71;52533.69;5064374;28;19988;-66
2022/02/13 10:56:09;;;;;;;;;;;;;;;-144.99;44.77;52541.84;5064490;28;20417;-66
2022/02/13 10:58:37;;;;;;;;;;;;;;;-144.99;45.18;52552.03;5054752;28;19990;-66
2022/02/13 11:01:05;;;;;;;;;;;;;;;-144.99;45.54;52521.47;5055403;28;19988;-65
2022/02/13 11:03:32;;;;;;;;;;;;;;;-144.99;45.82;52492.94;5079846;22;20001;-68
2022/02/13 11:05:59;;;;;;;;;;;;;;;-144.99;45.12;52578.53;5076744;28;19976;-70
2022/02/13 11:08:28;;;;;;;;;;;;;;;-144.99;46.11;52586.69;5075502;28;19972;-68
2022/02/13 11:10:57;;;;;;;;;;;;;;;-144.99;46.35;52554.09;5067703;28;20078;-68
2022/02/13 11:13:24;;;;;;;;;;;;;;;-144.99;45.83;52558.16;5062525;28;19992;-68
2022/02/13 11:15:52;;;;;;;;;;;;;;;-144.99;46.09;52507.19;5054018;28;19976;-68
2022/02/13 11:18:21;;;;;;;;;;;;;;;-144.99;45.51;52558.16;5050326;28;20428;-67
2022/02/13 11:20:48;;;;;;;;;;;;;;;-144.99;46.10;52607.09;5044004;28;19972;-68
2022/02/13 11:23:19;;;;;;;;;;;;;;;-144.99;46.49;52574.47;5043686;28;20550;-68
2022/02/13 11:25:49;;;;;;;;;;;;;;;-144.99;45.95;52507.19;5046964;28;20037;-68
2022/02/13 11:28:16;;;;;;;;;;;;;;;-144.99;45.40;52521.47;5049329;28;20106;-68
2022/02/13 11:30:43;;;;;;;;;;;;;;;-144.99;45.99;52452.16;5046557;28;20451;-67
2022/02/13 11:33:35;;;;;;;;;;;;;;;-144.99;44.41;52533.69;5051534;28;20139;-68
2022/02/13 11:36:03;;;;;;;;;;;;;;;-144.99;43.42;52492.94;5051895;28;19971;-67
2022/02/13 11:38:56;;;;;;;;;;;;;;;-144.99;43.89;52488.84;5052658;28;20126;-68
2022/02/13 11:41:37;;;;;;;;;;;;;;;-144.99;43.95;52529.63;5013922;28;20059;-68
2022/02/13 11:44:04;;;;;;;;;;;;;;;-144.99;44.56;52427.72;5034303;28;19997;-68
2022/02/13 11:46:52;;;;;;;;;;;;;;;-144.99;44.41;52497.00;5051887;28;20078;-68
2022/02/13 11:49:21;;;;;;;;;;;;;;;-144.99;44.04;52456.25;5051571;28;19981;-68
2022/02/13 11:51:57;;;;;;;;;;;;;;;-144.99;43.95;52488.84;5061320;28;19975;-69
2022/02/13 11:54:44;;;;;;;;;;;;;;;-144.99;43.86;52452.16;5062190;28;20030;-67
2022/02/13 11:57:17;;;;;;;;;;;;;;;-144.99;43.50;52507.19;5061779;28;19993;-68
2022/02/13 11:59:48;;;;;;;;;;;;;;;-144.99;43.06;52488.84;5060987;28;20469;-69
2022/02/13 12:02:15;;;;;;;;;;;;;;;-144.99;42.93;52482.75;5052418;28;20327;-68
2022/02/13 12:04:56;;;;;;;;;;;;;;;-144.99;43.06;52541.84;5054404;28;19992;-69
2022/02/13 12:07:24;;;;;;;;;;;;;;;-144.99;44.36;52554.09;5037188;28;19979;-69
2022/02/13 12:09:51;;;;;;;;;;;;;;;-144.99;44.93;52562.25;5054077;28;19975;-69
2022/02/13 12:12:24;;;;;;;;;;;;;;;-144.99;45.32;52525.56;5053874;28;20357;-70
2022/02/13 12:14:50;;;;;;;;;;;;;;;-144.99;45.28;52582.63;5039059;28;19976;-68
2022/02/13 12:17:23;;;;;;;;;;;;;;;-144.99;45.75;52576.50;5051141;28;19972;-68
2022/02/13 12:19:59;;;;;;;;;;;;;;;-144.99;46.08;52582.63;5050802;28;19986;-69
2022/02/13 12:22:27;;;;;;;;;;;;;;;-144.99;45.33;52537.78;5050425;28;20045;-69
2022/02/13 12:24:55;;;;;;;;;;;;;;;-144.99;45.39;52513.31;5051589;28;20035;-68
2022/02/13 12:27:22;;;;;;;;;;;;;;;-144.99;44.59;52492.94;5050826;28;19984;-69